Time;durP1;ratioP1;P1;durP2;ratioP2;P2;SDS_P1;SDS_P2;PMS_P1;PMS_P2;Temp;Humidity;BMP_temperature;BMP_pressure;BME280_temperature;BME280_humidity;BME280_pressure;Samples;Min_cycle;Max_cycle;Signal;HPM_P1;HPM_P2
2022/06/17 00:01:42;;;;;;;3.73;3.03;;;13.60;99.90;;;;;;4971793;28;20317;-82
2022/06/17 00:04:09;;;;;;;3.40;3.10;;;13.60;99.90;;;;;;4969645;28;20667;-82
2022/06/17 00:06:40;;;;;;;5.27;3.50;;;13.60;99.90;;;;;;4961700;28;20206;-81
2022/06/17 00:09:09;;;;;;;5.73;3.77;;;13.60;99.90;;;;;;4966051;28;20202;-83
2022/06/17 00:11:38;;;;;;;6.03;3.67;;;13.40;99.90;;;;;;4973770;28;20222;-83
2022/06/17 00:14:12;;;;;;;6.90;3.30;;;13.20;99.90;;;;;;4976339;28;20205;-81
2022/06/17 00:16:39;;;;;;;5.50;3.93;;;12.80;99.90;;;;;;4975320;28;20205;-82
2022/06/17 00:19:06;;;;;;;5.47;3.90;;;12.80;99.90;;;;;;4963900;28;20292;-81
2022/06/17 00:21:35;;;;;;;8.33;4.70;;;12.80;99.90;;;;;;4974869;28;20225;-81
2022/06/17 00:24:13;;;;;;;7.37;4.87;;;12.90;99.90;;;;;;4967012;28;20240;-81
2022/06/17 00:26:40;;;;;;;4.27;3.53;;;13.00;99.90;;;;;;4974118;28;20208;-84
2022/06/17 00:29:11;;;;;;;4.50;3.80;;;12.80;99.90;;;;;;4970135;28;20201;-81
2022/06/17 00:31:37;;;;;;;9.30;5.83;;;12.70;99.90;;;;;;4975951;28;20226;-82
2022/06/17 00:34:04;;;;;;;11.73;6.50;;;12.90;99.90;;;;;;4980985;28;20679;-81
2022/06/17 00:36:31;;;;;;;14.60;7.27;;;13.10;99.90;;;;;;4983229;28;20292;-82
2022/06/17 00:38:58;;;;;;;10.27;6.00;;;13.10;99.90;;;;;;4977404;28;20217;-82
2022/06/17 00:41:30;;;;;;;8.00;4.37;;;13.30;99.90;;;;;;4968140;28;20221;-82
2022/06/17 00:43:59;;;;;;;6.20;3.57;;;13.30;99.90;;;;;;4968824;28;20218;-80
2022/06/17 00:46:33;;;;;;;4.27;3.30;;;13.10;99.90;;;;;;4960503;28;20216;-81
2022/06/17 00:49:10;;;;;;;4.83;3.73;;;13.20;99.90;;;;;;4976088;28;20260;-83
2022/06/17 00:51:45;;;;;;;5.10;3.43;;;13.10;99.90;;;;;;4971435;28;20308;-81
2022/06/17 00:54:21;;;;;;;4.73;3.83;;;13.10;99.90;;;;;;4976128;28;20206;-81
2022/06/17 00:56:49;;;;;;;6.47;3.90;;;13.00;99.90;;;;;;4976889;28;20641;-80
2022/06/17 00:59:16;;;;;;;6.57;3.57;;;12.90;99.90;;;;;;4976212;28;20570;-80
2022/06/17 01:01:50;;;;;;;7.50;3.60;;;13.00;99.90;;;;;;4976043;28;20237;-81
2022/06/17 01:04:21;;;;;;;7.17;3.97;;;13.00;99.90;;;;;;4975479;28;20596;-80
2022/06/17 01:06:55;;;;;;;5.03;3.73;;;13.00;99.90;;;;;;4960359;28;20274;-81
2022/06/17 01:12:28;;;;;;;4.93;3.67;;;12.90;99.90;;;;;;4958315;28;20194;-80
2022/06/17 01:14:57;;;;;;;6.70;3.80;;;13.10;99.90;;;;;;4957141;29;20210;-81
2022/06/17 01:17:26;;;;;;;5.80;3.50;;;12.90;99.90;;;;;;4967973;28;20288;-80
2022/06/17 01:19:55;;;;;;;4.73;3.70;;;12.90;99.90;;;;;;4979448;28;20233;-81
2022/06/17 01:22:33;;;;;;;6.90;3.80;;;12.90;99.90;;;;;;4979388;28;20288;-81
2022/06/17 01:25:04;;;;;;;5.50;3.70;;;12.90;99.90;;;;;;4978863;28;20589;-80
2022/06/17 01:27:34;;;;;;;6.53;3.87;;;12.70;99.90;;;;;;4979704;28;20198;-82
2022/06/17 01:30:02;;;;;;;5.60;3.80;;;13.00;99.90;;;;;;4972911;28;20222;-80
2022/06/17 01:32:33;;;;;;;6.27;3.60;;;13.10;99.90;;;;;;4978025;28;20206;-81
2022/06/17 01:35:00;;;;;;;7.17;3.70;;;13.10;99.90;;;;;;4978669;28;20225;-82
2022/06/17 01:37:29;;;;;;;5.43;3.93;;;13.20;99.90;;;;;;4979141;28;20269;-81
2022/06/17 01:39:58;;;;;;;4.10;3.53;;;13.10;99.90;;;;;;4978555;28;20678;-81
2022/06/17 01:42:26;;;;;;;5.90;3.70;;;12.90;99.90;;;;;;4977404;28;20217;-81
2022/06/17 01:44:54;;;;;;;4.20;3.50;;;12.90;99.90;;;;;;4973235;28;20316;-81
2022/06/17 01:47:24;;;;;;;3.97;3.53;;;12.90;99.90;;;;;;4978945;28;20674;-82
2022/06/17 01:49:56;;;;;;;5.03;3.67;;;13.00;99.90;;;;;;4978228;28;20214;-81
2022/06/17 01:52:28;;;;;;;5.87;3.77;;;12.90;99.90;;;;;;4964818;28;20202;-81
2022/06/17 01:55:00;;;;;;;6.77;4.23;;;12.70;99.90;;;;;;4976474;28;20281;-81
2022/06/17 01:57:33;;;;;;;5.83;4.03;;;12.70;99.90;;;;;;4968462;28;20234;-83
2022/06/17 02:00:06;;;;;;;6.50;4.03;;;12.70;99.90;;;;;;4976429;28;20710;-81
2022/06/17 02:02:34;;;;;;;4.40;3.73;;;12.60;99.90;;;;;;4975148;28;20198;-80
2022/06/17 02:05:07;;;;;;;5.77;3.93;;;12.60;99.90;;;;;;4977530;28;20225;-80
2022/06/17 02:07:39;;;;;;;5.33;3.90;;;12.70;99.90;;;;;;4978915;28;20280;-81
2022/06/17 02:10:08;;;;;;;6.47;4.00;;;12.50;99.90;;;;;;4977774;28;20312;-83
2022/06/17 02:12:36;;;;;;;6.30;3.90;;;12.50;99.90;;;;;;4978401;28;20670;-81
2022/06/17 02:15:03;;;;;;;5.57;4.37;;;12.60;99.90;;;;;;4977788;28;20208;-81
2022/06/17 02:17:34;;;;;;;5.63;3.80;;;12.60;99.90;;;;;;4977006;28;20211;-82
2022/06/17 02:20:02;;;;;;;4.97;4.07;;;12.70;99.90;;;;;;4977767;28;20225;-81
2022/06/17 02:22:31;;;;;;;5.30;3.93;;;12.50;99.90;;;;;;4978142;28;20205;-82
2022/06/17 02:25:01;;;;;;;6.80;4.13;;;12.60;99.90;;;;;;4977188;28;20746;-81
2022/06/17 02:27:32;;;;;;;4.43;3.80;;;12.60;99.90;;;;;;4973397;28;20202;-82
2022/06/17 02:30:00;;;;;;;6.53;3.73;;;12.60;99.90;;;;;;4975761;28;20213;-83
2022/06/17 02:32:27;;;;;;;5.47;3.67;;;12.60;99.90;;;;;;4970961;28;20202;-82
2022/06/17 02:34:58;;;;;;;5.40;4.00;;;12.50;99.90;;;;;;4978655;28;20643;-81
2022/06/17 02:37:27;;;;;;;6.20;4.00;;;12.40;99.90;;;;;;4960152;28;20208;-83
2022/06/17 02:39:57;;;;;;;6.90;4.13;;;12.20;99.90;;;;;;4970593;28;20217;-81
2022/06/17 02:42:27;;;;;;;6.47;3.87;;;12.00;99.90;;;;;;4959952;28;20292;-81
2022/06/17 02:44:59;;;;;;;7.10;4.20;;;12.00;99.90;;;;;;4955526;29;20226;-81
2022/06/17 02:47:26;;;;;;;8.20;4.50;;;12.00;99.90;;;;;;4959609;28;20528;-80
2022/06/17 02:49:54;;;;;;;6.73;4.57;;;12.00;99.90;;;;;;4955324;28;20241;-81
2022/06/17 02:52:28;;;;;;;4.53;3.60;;;11.90;99.90;;;;;;4959469;28;20639;-80
2022/06/17 02:55:00;;;;;;;5.47;4.30;;;11.90;99.90;;;;;;4972317;28;20647;-82
2022/06/17 02:57:28;;;;;;;5.73;3.93;;;11.90;99.90;;;;;;4972490;28;20539;-81
2022/06/17 03:00:00;;;;;;;5.13;3.90;;;12.00;99.90;;;;;;4974850;28;20234;-80
2022/06/17 03:02:32;;;;;;;6.80;3.80;;;12.00;99.90;;;;;;4975231;28;20631;-81
2022/06/17 03:05:00;;;;;;;6.80;4.27;;;12.00;99.90;;;;;;4980622;28;20217;-81
2022/06/17 03:07:30;;;;;;;6.97;4.33;;;12.20;99.90;;;;;;4973408;28;20232;-80
2022/06/17 03:09:57;;;;;;;6.33;4.20;;;12.20;99.90;;;;;;4954689;29;20311;-83
2022/06/17 03:12:28;;;;;;;6.33;4.00;;;12.20;99.90;;;;;;4960737;28;20206;-80
2022/06/17 03:15:02;;;;;;;6.30;4.13;;;12.20;99.90;;;;;;4957784;28;20651;-81
2022/06/17 03:17:31;;;;;;;6.23;4.30;;;12.30;99.90;;;;;;4971335;28;20200;-80
2022/06/17 03:19:59;;;;;;;8.07;4.27;;;12.30;99.90;;;;;;4957523;28;20325;-82
2022/06/17 03:22:27;;;;;;;5.90;4.10;;;12.50;99.90;;;;;;4971770;28;20202;-78
2022/06/17 03:24:59;;;;;;;5.97;4.33;;;12.40;99.90;;;;;;4954357;28;20225;-79
2022/06/17 03:27:32;;;;;;;6.10;4.40;;;12.60;99.90;;;;;;4973497;28;20305;-79
2022/06/17 03:30:02;;;;;;;5.27;3.93;;;12.70;99.90;;;;;;4957113;28;20312;-82
2022/06/17 03:32:35;;;;;;;7.37;4.60;;;12.70;99.90;;;;;;4954159;29;20594;-84
2022/06/17 03:35:02;;;;;;;6.33;4.30;;;12.50;99.90;;;;;;4958172;28;20228;-84
2022/06/17 03:37:33;;;;;;;7.67;4.43;;;12.40;99.90;;;;;;4971965;28;20211;-84
2022/06/17 03:40:04;;;;;;;5.20;3.87;;;12.30;99.90;;;;;;4972562;28;20238;-84
2022/06/17 03:42:42;;;;;;;5.60;4.00;;;12.50;99.90;;;;;;4972395;28;20209;-84
2022/06/17 03:45:17;;;;;;;5.17;3.83;;;12.40;99.90;;;;;;4972901;28;20231;-85
2022/06/17 03:47:58;;;;;;;7.40;4.00;;;12.70;99.90;;;;;;4975603;28;20205;-84
2022/06/17 03:50:31;;;;;;;7.40;3.67;;;12.70;99.90;;;;;;4976921;28;20741;-84
2022/06/17 03:53:02;;;;;;;8.20;4.20;;;13.10;99.90;;;;;;4974304;28;20613;-85
2022/06/17 03:55:29;;;;;;;6.07;4.27;;;13.40;99.90;;;;;;4966165;28;20865;-84
2022/06/17 03:58:00;;;;;;;6.77;3.97;;;13.60;99.90;;;;;;4974073;28;20227;-84
2022/06/17 04:00:40;;;;;;;4.70;4.00;;;13.70;99.90;;;;;;4979501;28;20396;-84
2022/06/17 04:03:13;;;;;;;6.83;4.30;;;13.60;99.90;;;;;;4969303;28;20223;-84
2022/06/17 04:05:42;;;;;;;6.60;4.17;;;13.70;99.90;;;;;;4960530;28;20221;-85
2022/06/17 04:08:10;;;;;;;6.17;4.43;;;13.90;99.90;;;;;;4966097;28;20206;-84
2022/06/17 04:10:37;;;;;;;4.90;3.70;;;14.50;99.90;;;;;;4954530;29;20226;-84
2022/06/17 04:13:04;;;;;;;6.87;4.00;;;16.60;99.90;;;;;;4953715;28;20288;-85
2022/06/17 04:15:42;;;;;;;4.67;4.07;;;17.90;96.80;;;;;;4953784;29;20226;-85
2022/06/17 04:18:09;;;;;;;5.03;3.80;;;18.50;87.20;;;;;;4953353;28;20214;-85
2022/06/17 04:20:40;;;;;;;4.15;3.53;;;18.60;80.90;;;;;;4953689;28;20599;-84
2022/06/17 04:23:12;;;;;;;6.35;3.80;;;18.90;80.90;;;;;;4953856;28;20210;-84
2022/06/17 04:25:44;;;;;;;5.05;3.20;;;18.30;78.90;;;;;;4953911;28;20234;-85
2022/06/17 04:28:13;;;;;;;5.53;3.53;;;17.10;85.50;;;;;;4964099;28;20297;-85
2022/06/17 04:30:45;;;;;;;6.18;4.38;;;15.50;96.90;;;;;;4974062;28;20590;-84
2022/06/17 04:33:21;;;;;;;4.63;3.63;;;15.20;99.90;;;;;;4964216;28;20221;-84
2022/06/17 04:35:50;;;;;;;4.95;3.50;;;14.90;99.90;;;;;;4977756;28;20221;-84
2022/06/17 04:38:17;;;;;;;5.97;4.10;;;15.00;99.90;;;;;;4958706;28;20742;-84
2022/06/17 04:40:48;;;;;;;6.97;3.90;;;16.00;99.90;;;;;;4984765;28;20227;-84
2022/06/17 04:43:28;;;;;;;7.32;4.13;;;15.20;99.90;;;;;;4970283;28;20213;-84
2022/06/17 04:46:00;;;;;;;4.83;4.10;;;14.60;99.90;;;;;;4957149;28;20667;-84
2022/06/17 04:48:27;;;;;;;5.40;3.93;;;14.40;99.90;;;;;;4958192;28;20206;-86
2022/06/17 04:50:54;;;;;;;6.80;4.00;;;14.20;99.90;;;;;;4956139;28;20230;-85
2022/06/17 04:53:21;;;;;;;4.93;4.30;;;13.80;99.90;;;;;;4960271;28;20218;-84
2022/06/17 04:55:48;;;;;;;5.37;4.17;;;13.90;99.90;;;;;;4959634;28;20293;-84
2022/06/17 04:58:17;;;;;;;5.43;4.50;;;13.90;99.90;;;;;;4959985;28;20289;-83
2022/06/17 05:00:47;;;;;;;9.10;4.43;;;13.80;99.90;;;;;;4964041;28;20321;-84
2022/06/17 05:03:16;;;;;;;5.83;4.40;;;13.70;99.90;;;;;;4966063;29;20214;-84
2022/06/17 05:05:45;;;;;;;10.30;4.93;;;13.60;99.90;;;;;;4963729;29;20222;-84
2022/06/17 05:08:21;;;;;;;7.40;4.40;;;14.10;99.90;;;;;;4972561;28;20293;-83
2022/06/17 05:10:53;;;;;;;8.83;4.43;;;14.60;99.90;;;;;;4978598;28;20745;-84
2022/06/17 05:13:25;;;;;;;9.47;4.53;;;15.00;99.90;;;;;;4961669;29;20743;-83
2022/06/17 05:15:52;;;;;;;7.13;4.60;;;15.10;99.90;;;;;;4960581;28;20714;-83
2022/06/17 05:18:21;;;;;;;8.47;4.50;;;15.20;99.90;;;;;;4961333;28;20285;-84
2022/06/17 05:20:48;;;;;;;5.23;4.10;;;15.00;99.90;;;;;;4962571;28;20528;-83
2022/06/17 05:23:17;;;;;;;9.53;4.67;;;14.90;99.90;;;;;;4979992;28;20212;-83
2022/06/17 05:25:46;;;;;;;7.23;4.30;;;15.00;99.90;;;;;;4977056;28;20257;-83
2022/06/17 05:28:15;;;;;;;8.00;4.33;;;16.10;99.90;;;;;;4988582;28;20233;-83
2022/06/17 05:30:46;;;;;;;7.90;4.40;;;15.90;99.90;;;;;;4997103;28;20312;-84
2022/06/17 05:33:15;;;;;;;5.63;4.17;;;15.60;99.90;;;;;;4982648;28;20206;-84
2022/06/17 05:35:43;;;;;;;6.33;4.10;;;15.50;99.90;;;;;;4983878;28;20296;-84
2022/06/17 05:38:10;;;;;;;12.30;4.27;;;15.70;99.90;;;;;;4980257;28;20569;-84
2022/06/17 05:40:38;;;;;;;7.43;4.53;;;16.40;99.90;;;;;;4982492;28;20641;-83
2022/06/17 05:43:06;;;;;;;7.20;3.97;;;16.20;99.90;;;;;;4979634;28;20581;-86
2022/06/17 05:45:33;;;;;;;7.03;4.17;;;18.20;99.90;;;;;;4981973;28;20229;-83
2022/06/17 05:48:01;;;;;;;6.63;4.32;;;17.90;96.70;;;;;;4982099;28;20249;-83
2022/06/17 05:50:29;;;;;;;7.90;3.80;;;17.10;99.90;;;;;;4978215;28;20247;-85
2022/06/17 05:53:00;;;;;;;6.10;4.13;;;17.10;99.90;;;;;;4980661;28;20237;-84
2022/06/17 05:55:30;;;;;;;5.93;4.18;;;17.20;99.90;;;;;;4980654;28;20274;-84
2022/06/17 05:57:58;;;;;;;5.10;3.72;;;18.20;99.90;;;;;;4979983;28;20288;-84
2022/06/17 06:00:26;;;;;;;5.45;3.72;;;17.50;98.80;;;;;;4981841;28;20221;-84
2022/06/17 06:02:56;;;;;;;4.40;3.78;;;17.20;99.90;;;;;;4982309;28;20289;-84
2022/06/17 06:05:24;;;;;;;5.97;3.85;;;17.10;99.90;;;;;;4986637;28;20551;-84
2022/06/17 06:07:51;;;;;;;7.70;4.35;;;17.10;99.90;;;;;;4995089;28;20284;-84
2022/06/17 06:10:20;;;;;;;5.57;3.88;;;17.20;99.90;;;;;;4982193;28;20230;-84
2022/06/17 06:12:57;;;;;;;8.93;4.10;;;17.10;99.90;;;;;;4982619;28;20240;-85
2022/06/17 06:15:27;;;;;;;6.32;3.40;;;17.30;99.70;;;;;;4983043;28;20224;-84
2022/06/17 06:17:54;;;;;;;7.18;3.90;;;17.30;98.70;;;;;;4979772;28;20690;-84
2022/06/17 06:20:22;;;;;;;5.32;3.35;;;17.10;97.80;;;;;;4979844;28;20312;-84
2022/06/17 06:22:49;;;;;;;6.30;3.67;;;17.00;98.00;;;;;;4979086;28;20694;-83
2022/06/17 06:25:19;;;;;;;6.53;3.97;;;17.30;98.00;;;;;;4979777;28;20228;-84
2022/06/17 06:27:46;;;;;;;7.38;4.22;;;17.10;97.60;;;;;;4976919;28;20213;-86
2022/06/17 06:30:19;;;;;;;8.65;3.97;;;17.20;99.10;;;;;;4975731;28;20304;-84
2022/06/17 06:32:52;;;;;;;5.20;3.42;;;17.20;99.80;;;;;;4973614;28;20202;-84
2022/06/17 06:35:20;;;;;;;6.50;3.60;;;17.60;99.50;;;;;;4974415;28;20202;-84
2022/06/17 06:37:47;;;;;;;9.88;6.20;;;17.70;97.60;;;;;;4972741;28;20705;-84
2022/06/17 06:40:14;;;;;;;4.85;4.20;;;17.80;97.30;;;;;;4972604;28;20232;-81
2022/06/17 06:42:43;;;;;;;6.85;3.47;;;17.70;96.30;;;;;;4972031;28;20210;-85
2022/06/17 06:45:17;;;;;;;5.10;3.40;;;17.60;95.20;;;;;;4974509;28;20230;-82
2022/06/17 06:47:45;;;;;;;6.68;3.78;;;17.60;94.00;;;;;;4975662;28;20213;-84
2022/06/17 06:50:15;;;;;;;8.98;3.75;;;17.70;94.10;;;;;;4975252;28;20234;-85
2022/06/17 06:52:42;;;;;;;7.70;4.05;;;17.70;96.30;;;;;;4982188;28;20697;-84
2022/06/17 06:55:09;;;;;;;6.65;3.63;;;17.80;95.40;;;;;;4973554;28;20709;-86
2022/06/17 06:57:45;;;;;;;5.53;3.70;;;17.80;93.50;;;;;;4966703;28;20248;-84
2022/06/17 07:00:16;;;;;;;5.32;3.50;;;18.00;93.00;;;;;;4955918;29;20236;-85
2022/06/17 07:02:43;;;;;;;5.35;3.90;;;17.90;92.20;;;;;;4955028;28;20222;-85
2022/06/17 07:05:09;;;;;;;3.85;3.40;;;18.10;92.80;;;;;;4954807;28;20693;-85
2022/06/17 07:07:36;;;;;;;5.28;3.70;;;18.20;92.20;;;;;;4956401;28;20221;-85
2022/06/17 07:10:04;;;;;;;6.32;3.83;;;18.30;91.10;;;;;;4954231;29;20650;-85
2022/06/17 07:12:31;;;;;;;4.82;3.53;;;18.20;91.20;;;;;;4956467;28;20210;-84
2022/06/17 07:14:59;;;;;;;6.93;3.28;;;18.30;90.70;;;;;;4955489;29;20217;-84
2022/06/17 07:17:26;;;;;;;5.07;3.78;;;18.40;89.60;;;;;;4955999;29;20397;-84
2022/06/17 07:19:53;;;;;;;6.30;3.80;;;18.60;87.80;;;;;;4955373;28;20226;-85
2022/06/17 07:22:20;;;;;;;6.25;3.20;;;18.50;86.90;;;;;;4955518;29;20210;-85
2022/06/17 07:24:47;;;;;;;5.45;3.35;;;18.70;87.10;;;;;;4955008;28;20210;-85
2022/06/17 07:27:14;;;;;;;4.50;3.10;;;18.90;78.50;;;;;;4955309;28;20230;-85
2022/06/17 07:29:41;;;;;;;4.07;3.33;;;18.80;76.60;;;;;;4955593;29;20289;-87
2022/06/17 07:32:09;;;;;;;6.50;3.60;;;18.80;74.70;;;;;;4955581;28;20216;-85
2022/06/17 07:34:36;;;;;;;4.88;3.55;;;18.90;76.10;;;;;;4955943;29;20209;-85
2022/06/17 07:39:57;;;;;;;3.58;3.10;;;19.10;69.50;;;;;;4955424;29;20228;-86
2022/06/17 07:42:26;;;;;;;5.00;3.58;;;19.10;67.90;;;;;;4955729;29;20210;-85
2022/06/17 07:44:54;;;;;;;5.57;3.03;;;19.20;67.60;;;;;;4955152;29;20703;-84
2022/06/17 07:47:23;;;;;;;4.57;3.22;;;19.40;69.40;;;;;;4954761;29;20233;-85
2022/06/17 07:49:51;;;;;;;6.10;3.78;;;19.40;66.70;;;;;;4954996;29;20230;-84
2022/06/17 07:52:17;;;;;;;5.28;3.33;;;19.60;68.50;;;;;;4954949;29;20273;-84
2022/06/17 07:54:44;;;;;;;3.45;2.85;;;19.70;61.60;;;;;;4954139;29;20675;-87
2022/06/17 07:57:14;;;;;;;7.13;2.75;;;19.70;57.40;;;;;;4953886;29;20212;-85
2022/06/17 07:59:41;;;;;;;3.67;2.92;;;19.60;54.80;;;;;;4953792;28;20561;-85
2022/06/17 08:02:08;;;;;;;4.72;3.35;;;19.60;53.80;;;;;;4954708;28;20209;-85
2022/06/17 08:04:38;;;;;;;8.80;3.30;;;19.70;52.50;;;;;;4955340;29;20269;-85
2022/06/17 08:07:05;;;;;;;4.03;2.75;;;19.70;52.30;;;;;;4954331;28;20226;-84
2022/06/17 08:09:32;;;;;;;6.85;3.45;;;19.70;52.70;;;;;;4954638;29;20297;-85
2022/06/17 08:11:59;;;;;;;3.40;2.97;;;19.80;52.80;;;;;;4954612;29;20210;-85
2022/06/17 08:14:26;;;;;;;3.75;2.90;;;19.80;55.50;;;;;;4953860;29;20211;-85
2022/06/17 08:16:53;;;;;;;4.90;2.90;;;20.10;54.70;;;;;;4955778;28;20221;-84
2022/06/17 08:19:21;;;;;;;6.30;3.05;;;19.90;54.90;;;;;;4958093;28;20214;-85
2022/06/17 08:21:49;;;;;;;3.83;2.67;;;19.80;52.90;;;;;;4958101;29;20218;-84
2022/06/17 08:24:16;;;;;;;7.20;3.42;;;19.90;54.70;;;;;;4957618;28;20202;-85
2022/06/17 08:26:42;;;;;;;7.80;3.38;;;20.00;52.80;;;;;;4957661;29;20218;-85
2022/06/17 08:29:09;;;;;;;4.50;2.90;;;20.10;53.60;;;;;;4957811;29;20213;-85
2022/06/17 08:31:36;;;;;;;3.00;2.80;;;20.30;51.80;;;;;;4956942;28;20753;-86
2022/06/17 08:34:03;;;;;;;3.97;3.00;;;20.50;51.70;;;;;;4957131;28;20675;-85
2022/06/17 08:36:31;;;;;;;5.63;3.42;;;20.40;46.00;;;;;;4956587;29;20293;-85
2022/06/17 08:39:02;;;;;;;5.43;3.42;;;20.70;53.60;;;;;;4957618;29;20234;-85
2022/06/17 08:41:32;;;;;;;6.28;3.42;;;20.80;54.90;;;;;;4956735;29;20297;-85
2022/06/17 08:44:19;;;;;;;4.68;3.40;;;20.80;56.00;;;;;;4957127;28;20214;-85
2022/06/17 08:47:00;;;;;;;5.15;3.33;;;21.10;55.10;;;;;;4953851;29;20599;-85
2022/06/17 08:49:43;;;;;;;5.32;2.67;;;21.40;54.20;;;;;;4956948;29;20221;-85
2022/06/17 08:52:36;;;;;;;3.75;3.10;;;21.50;55.40;;;;;;4957243;29;20214;-85
2022/06/17 08:55:11;;;;;;;5.50;2.90;;;22.10;51.80;;;;;;4957922;28;20285;-85
2022/06/17 08:57:44;;;;;;;7.05;3.70;;;22.50;52.40;;;;;;4976867;28;20704;-84
2022/06/17 09:00:18;;;;;;;4.13;3.15;;;22.30;47.90;;;;;;4964178;28;20610;-84
2022/06/17 09:03:17;;;;;;;3.55;2.90;;;22.60;48.30;;;;;;4977449;28;20277;-85
2022/06/17 09:05:49;;;;;;;5.85;3.05;;;22.60;45.30;;;;;;4963041;28;20210;-84
2022/06/17 09:08:33;;;;;;;6.03;3.00;;;22.80;42.70;;;;;;4967610;28;20566;-83
2022/06/17 09:11:15;;;;;;;4.97;2.90;;;23.10;40.00;;;;;;4975077;28;20265;-84
2022/06/17 09:13:53;;;;;;;6.90;2.50;;;23.60;42.80;;;;;;4975451;28;20204;-85
2022/06/17 09:16:26;;;;;;;2.95;2.70;;;24.40;37.90;;;;;;4983655;28;20218;-86
2022/06/17 09:18:59;;;;;;;5.28;3.42;;;24.40;37.00;;;;;;4965258;28;20208;-84
2022/06/17 09:21:32;;;;;;;4.10;2.60;;;24.50;37.40;;;;;;4967454;28;20233;-84
2022/06/17 09:24:04;;;;;;;3.55;2.70;;;24.60;36.00;;;;;;4964058;28;20212;-83
2022/06/17 09:26:39;;;;;;;6.45;2.80;;;24.30;34.60;;;;;;4992122;28;20217;-83
2022/06/17 09:29:12;;;;;;;5.78;3.08;;;23.90;36.70;;;;;;4994037;28;20219;-85
2022/06/17 09:31:43;;;;;;;5.00;2.50;;;24.40;34.40;;;;;;4994775;28;20225;-84
2022/06/17 09:34:14;;;;;;;3.78;2.85;;;24.80;34.40;;;;;;4994031;28;20645;-85
2022/06/17 09:36:47;;;;;;;5.15;2.60;;;25.00;32.80;;;;;;4994906;28;20773;-84
2022/06/17 09:39:18;;;;;;;5.43;2.90;;;25.70;33.20;;;;;;4990009;28;20210;-85
2022/06/17 09:41:50;;;;;;;5.13;3.00;;;25.80;31.50;;;;;;4973550;28;20583;-85
2022/06/17 09:44:21;;;;;;;4.75;2.70;;;26.10;30.70;;;;;;4973480;28;20289;-84
2022/06/17 09:46:52;;;;;;;5.35;3.17;;;25.80;29.50;;;;;;4974483;28;20224;-85
2022/06/17 09:49:23;;;;;;;7.13;3.58;;;26.00;29.50;;;;;;4974933;28;20208;-85
2022/06/17 09:51:55;;;;;;;6.45;2.63;;;25.90;30.70;;;;;;4973730;28;20233;-85
2022/06/17 09:54:26;;;;;;;4.85;3.00;;;26.20;28.40;;;;;;4975060;28;20576;-85
2022/06/17 09:56:59;;;;;;;2.58;2.38;;;26.40;28.70;;;;;;4972671;28;20204;-85
2022/06/17 09:59:33;;;;;;;3.80;2.60;;;25.60;29.80;;;;;;4954972;29;20214;-85
2022/06/17 10:02:14;;;;;;;4.40;2.35;;;25.50;32.80;;;;;;4954806;29;20213;-85
2022/06/17 10:04:41;;;;;;;3.45;2.60;;;25.40;30.10;;;;;;4954560;29;20197;-86
2022/06/17 10:07:20;;;;;;;7.05;2.30;;;25.50;27.70;;;;;;4954963;29;20773;-85
2022/06/17 10:09:59;;;;;;;4.57;2.22;;;25.40;26.20;;;;;;4957394;29;20722;-84
2022/06/17 10:12:38;;;;;;;3.67;2.55;;;25.20;25.60;;;;;;4955441;29;20198;-85
2022/06/17 10:15:29;;;;;;;3.75;2.25;;;25.20;25.30;;;;;;4955456;29;20212;-85
2022/06/17 10:21:07;;;;;;;5.18;2.47;;;25.70;26.20;;;;;;4956198;29;20221;-86
2022/06/17 10:23:55;;;;;;;3.10;2.22;;;25.90;23.90;;;;;;4977618;28;20292;-85
2022/06/17 10:26:32;;;;;;;3.55;2.40;;;26.10;22.20;;;;;;4974627;28;20674;-86
2022/06/17 10:29:12;;;;;;;4.93;2.70;;;26.10;24.60;;;;;;4974470;28;20209;-85
2022/06/17 10:31:42;;;;;;;2.85;2.53;;;25.70;24.70;;;;;;4973566;28;20731;-85
2022/06/17 10:34:14;;;;;;;5.75;2.30;;;25.30;30.00;;;;;;4974789;28;20232;-85
2022/06/17 10:36:44;;;;;;;2.83;1.75;;;25.50;27.40;;;;;;4974089;28;20201;-85
2022/06/17 10:39:15;;;;;;;1.83;1.73;;;26.20;23.00;;;;;;4974270;28;20587;-85
2022/06/17 10:41:43;;;;;;;2.47;2.15;;;27.00;23.10;;;;;;4973390;28;20317;-85
2022/06/17 10:44:14;;;;;;;4.03;2.40;;;26.50;20.80;;;;;;4974234;28;20213;-86
2022/06/17 10:46:45;;;;;;;2.25;2.10;;;26.80;21.40;;;;;;4972814;28;20318;-85
2022/06/17 10:49:16;;;;;;;2.33;2.13;;;26.40;20.80;;;;;;4966889;28;20289;-85
2022/06/17 10:51:45;;;;;;;3.40;2.30;;;26.40;22.10;;;;;;4954375;28;20226;-85
2022/06/17 10:54:18;;;;;;;2.92;2.08;;;26.70;22.90;;;;;;4954813;28;20214;-85
2022/06/17 10:56:54;;;;;;;2.45;1.85;;;26.30;22.80;;;;;;4953507;29;20213;-85
2022/06/17 10:59:32;;;;;;;3.72;2.10;;;26.10;22.70;;;;;;4955196;28;20210;-86
2022/06/17 11:01:59;;;;;;;2.20;1.98;;;26.40;19.80;;;;;;4953220;28;20194;-85
2022/06/17 11:04:27;;;;;;;2.22;2.13;;;26.60;20.70;;;;;;4969190;28;20570;-85
2022/06/17 11:07:00;;;;;;;2.13;2.03;;;27.20;18.90;;;;;;4989432;28;20744;-85
2022/06/17 11:09:31;;;;;;;2.97;2.30;;;27.30;21.00;;;;;;4954057;29;20230;-85
2022/06/17 11:12:04;;;;;;;4.80;2.00;;;27.00;21.10;;;;;;4964004;28;20210;-86
2022/06/17 11:14:37;;;;;;;3.05;1.98;;;26.90;20.50;;;;;;4971415;28;20636;-85
2022/06/17 11:17:16;;;;;;;3.83;2.38;;;27.60;19.60;;;;;;4958875;28;20293;-85
2022/06/17 11:19:45;;;;;;;2.20;2.00;;;26.40;19.30;;;;;;4951026;29;20206;-85
2022/06/17 11:22:20;;;;;;;2.60;2.40;;;26.60;21.00;;;;;;4950061;29;20217;-85
2022/06/17 11:24:53;;;;;;;4.10;2.20;;;26.30;20.30;;;;;;4951281;29;20208;-85
2022/06/17 11:27:27;;;;;;;3.65;2.25;;;25.80;20.50;;;;;;4964573;28;20225;-85
2022/06/17 11:29:57;;;;;;;3.55;2.40;;;26.30;20.00;;;;;;4971063;28;20221;-85
2022/06/17 11:32:32;;;;;;;2.50;2.30;;;26.40;20.10;;;;;;4960037;28;20301;-85
2022/06/17 11:35:01;;;;;;;4.53;2.50;;;26.40;20.30;;;;;;4954259;28;20212;-85
2022/06/17 11:37:32;;;;;;;3.20;2.50;;;26.50;21.40;;;;;;4954528;28;20664;-86
2022/06/17 11:40:13;;;;;;;4.40;2.25;;;26.20;20.30;;;;;;4953858;29;20245;-85
2022/06/17 11:42:48;;;;;;;5.18;2.70;;;26.60;21.60;;;;;;4958424;28;20296;-85
2022/06/17 11:45:19;;;;;;;2.45;2.22;;;26.70;20.30;;;;;;4973077;28;20208;-85
2022/06/17 11:47:52;;;;;;;2.47;2.35;;;26.90;21.20;;;;;;4971516;28;20236;-85
2022/06/17 11:50:23;;;;;;;4.90;2.92;;;27.00;23.70;;;;;;4972388;28;20218;-85
2022/06/17 11:52:51;;;;;;;3.67;2.40;;;25.90;23.20;;;;;;4975294;28;20287;-85
2022/06/17 11:55:26;;;;;;;5.25;4.75;;;26.60;27.80;;;;;;4981609;28;20213;-85
2022/06/17 11:57:54;;;;;;;4.35;2.50;;;26.60;23.00;;;;;;4975856;28;20216;-85
2022/06/17 12:00:26;;;;;;;4.25;2.88;;;26.80;24.30;;;;;;4951470;29;20256;-85
2022/06/17 12:02:56;;;;;;;4.88;2.75;;;26.00;21.70;;;;;;4953586;28;20304;-84
2022/06/17 12:05:25;;;;;;;2.85;2.30;;;26.40;21.50;;;;;;4953540;28;20217;-85
2022/06/17 12:07:58;;;;;;;3.63;2.47;;;26.30;20.90;;;;;;4953460;28;20321;-85
2022/06/17 12:10:38;;;;;;;4.82;2.80;;;26.40;23.30;;;;;;4953604;29;20702;-85
2022/06/17 12:13:13;;;;;;;2.60;2.05;;;25.60;22.10;;;;;;4952300;28;20656;-85
2022/06/17 12:15:44;;;;;;;2.20;2.10;;;26.00;24.70;;;;;;4953514;29;20206;-85
2022/06/17 12:18:18;;;;;;;4.80;1.95;;;25.90;22.30;;;;;;4962093;28;20286;-85
2022/06/17 12:20:59;;;;;;;2.20;2.00;;;26.10;24.10;;;;;;4973021;28;20736;-85
2022/06/17 12:23:32;;;;;;;3.15;2.20;;;26.50;21.30;;;;;;4961187;28;20279;-86
2022/06/17 12:26:03;;;;;;;3.45;2.28;;;26.70;21.90;;;;;;4954543;28;20222;-85
2022/06/17 12:28:39;;;;;;;2.65;2.00;;;26.80;20.00;;;;;;4968340;28;20226;-85
2022/06/17 12:31:16;;;;;;;2.42;2.10;;;27.00;20.40;;;;;;4967259;28;20237;-86
2022/06/17 12:33:50;;;;;;;1.95;1.75;;;27.10;19.50;;;;;;4957505;28;20561;-86
2022/06/17 12:36:23;;;;;;;2.60;2.08;;;26.70;19.50;;;;;;4966150;28;20292;-86
2022/06/17 12:38:57;;;;;;;2.13;1.92;;;26.40;19.80;;;;;;4957816;28;20217;-87
2022/06/17 12:41:31;;;;;;;1.80;1.70;;;26.60;18.00;;;;;;4963340;28;20656;-85
2022/06/17 12:44:12;;;;;;;1.95;1.80;;;26.40;17.00;;;;;;4969484;28;20212;-85
2022/06/17 12:46:50;;;;;;;2.15;1.77;;;26.40;19.30;;;;;;4953931;29;20249;-85
2022/06/17 12:55:13;;;;;;;2.90;2.10;;;26.10;19.40;;;;;;4972289;28;20224;-84
2022/06/17 12:57:50;;;;;;;2.78;2.00;;;26.40;22.50;;;;;;4971912;28;20538;-85
2022/06/17 13:00:24;;;;;;;2.95;2.22;;;26.10;20.20;;;;;;4971187;28;20590;-86
2022/06/17 13:03:13;;;;;;;3.55;1.95;;;26.30;18.90;;;;;;4952871;28;20209;-86
2022/06/17 13:05:43;;;;;;;2.33;1.60;;;26.60;17.70;;;;;;4956607;29;20293;-86
2022/06/17 13:08:20;;;;;;;2.47;2.28;;;26.40;18.40;;;;;;4956323;29;20237;-85
2022/06/17 13:10:56;;;;;;;4.20;2.45;;;25.90;17.70;;;;;;4959086;28;20665;-85
2022/06/17 13:13:45;;;;;;;2.42;1.77;;;26.40;19.50;;;;;;4975671;28;20197;-86
2022/06/17 13:16:17;;;;;;;1.85;1.63;;;26.30;20.10;;;;;;4985167;28;20197;-86
2022/06/17 13:18:51;;;;;;;3.17;2.28;;;26.60;21.40;;;;;;4967991;28;20297;-85
2022/06/17 13:21:26;;;;;;;2.97;1.88;;;26.80;19.50;;;;;;4956542;28;20640;-85